Time;durP1;ratioP1;P1;durP2;ratioP2;P2;SDS_P1;SDS_P2;PMS_P1;PMS_P2;Temp;Humidity;BMP_temperature;BMP_pressure;BME280_temperature;BME280_humidity;BME280_pressure;Samples;Min_cycle;Max_cycle;Signal;HPM_P1;HPM_P2
2022/12/24 03:40:46;;;;;;;50.63;35.53;;;;;;;4.91;82.23;99914.05;1776305;79;22390;-69
2022/12/24 03:43:13;;;;;;;50.35;34.35;;;;;;;5.00;80.99;99921.10;1786677;80;22215;-69
2022/12/24 03:45:40;;;;;;;49.55;33.70;;;;;;;5.09;80.16;99921.52;1775938;80;21095;-69
2022/12/24 03:48:07;;;;;;;49.77;33.75;;;;;;;5.17;79.48;99919.30;1761846;80;20892;-70
2022/12/24 03:50:33;;;;;;;48.17;33.25;;;;;;;5.24;78.91;99920.48;1757546;81;21003;-70
2022/12/24 03:53:00;;;;;;;48.02;33.73;;;;;;;5.32;78.48;99940.47;1758135;81;20943;-70
2022/12/24 03:55:27;;;;;;;46.40;32.30;;;;;;;5.37;78.22;99931.30;1787555;80;20963;-69
2022/12/24 03:57:54;;;;;;;48.63;33.10;;;;;;;5.45;77.90;99923.48;1788820;80;21081;-71
2022/12/24 04:00:21;;;;;;;50.35;34.92;;;;;;;5.53;77.57;99921.27;1788751;80;20942;-70
2022/12/24 04:02:48;;;;;;;50.10;33.88;;;;;;;5.63;77.21;99929.38;1781373;80;21005;-70
2022/12/24 04:05:17;;;;;;;48.10;32.65;;;;;;;5.74;76.84;99928.22;1757506;81;21003;-71
2022/12/24 04:07:45;;;;;;;49.33;32.25;;;;;;;5.83;76.47;99921.48;1758111;81;20959;-71
2022/12/24 04:10:13;;;;;;;46.55;31.62;;;;;;;5.90;76.03;99922.12;1757549;81;21806;-71
2022/12/24 04:12:40;;;;;;;46.92;32.83;;;;;;;5.97;75.61;99914.03;1757453;80;21007;-71
2022/12/24 04:15:09;;;;;;;45.78;32.42;;;;;;;6.02;75.21;99914.92;1757287;81;20968;-71
2022/12/24 04:17:36;;;;;;;45.28;31.87;;;;;;;6.06;74.79;99920.02;1757307;81;21532;-70
2022/12/24 04:20:03;;;;;;;49.73;33.45;;;;;;;6.12;74.43;99911.63;1758417;80;20961;-71
2022/12/24 04:22:31;;;;;;;48.45;32.17;;;;;;;6.17;74.03;99913.53;1787320;80;21138;-71
2022/12/24 04:24:58;;;;;;;47.55;32.35;;;;;;;6.20;73.57;99908.54;1789046;80;21032;-71
2022/12/24 04:27:25;;;;;;;45.33;30.77;;;;;;;6.22;73.11;99914.41;1757092;80;21040;-71
2022/12/24 04:29:52;;;;;;;42.98;30.08;;;;;;;6.20;72.56;99917.82;1770114;80;21146;-71
2022/12/24 04:32:18;;;;;;;46.37;31.50;;;;;;;6.19;72.22;99920.20;1758560;81;21070;-70
2022/12/24 04:34:45;;;;;;;49.10;32.00;;;;;;;6.22;71.99;99914.91;1757331;79;22137;-71
2022/12/24 04:37:12;;;;;;;49.77;33.02;;;;;;;6.27;71.75;99915.80;1746549;81;20926;-70
2022/12/24 04:39:39;;;;;;;45.80;31.85;;;;;;;6.30;71.42;99919.81;1744855;81;21066;-71
2022/12/24 04:42:05;;;;;;;46.85;31.30;;;;;;;6.34;71.20;99912.44;1757488;81;21022;-70
2022/12/24 04:44:33;;;;;;;43.70;31.48;;;;;;;6.40;70.91;99916.50;1756781;81;21089;-69
2022/12/24 04:47:00;;;;;;;42.48;30.72;;;;;;;6.45;70.61;99917.87;1757212;81;21148;-69
2022/12/24 04:49:27;;;;;;;47.23;31.80;;;;;;;6.48;70.26;99912.09;1756613;81;21695;-70
2022/12/24 04:51:54;;;;;;;43.05;30.77;;;;;;;6.51;69.94;99912.39;1757046;81;21143;-69
2022/12/24 04:54:21;;;;;;;43.33;30.90;;;;;;;6.52;69.68;99915.34;1743614;81;21018;-69
2022/12/24 04:56:47;;;;;;;47.62;31.80;;;;;;;6.53;69.44;99908.19;1733133;81;20962;-70
2022/12/24 04:59:14;;;;;;;49.10;32.25;;;;;;;6.55;69.17;99913.53;1756842;81;21253;-69
2022/12/24 05:01:40;;;;;;;46.77;32.05;;;;;;;6.57;68.92;99918.58;1756948;81;21113;-69
2022/12/24 05:04:08;;;;;;;44.05;30.43;;;;;;;6.58;68.68;99912.22;1756761;81;21070;-70
2022/12/24 05:06:34;;;;;;;44.63;31.80;;;;;;;6.60;68.49;99911.45;1756926;81;21066;-69
2022/12/24 05:09:01;;;;;;;47.43;32.33;;;;;;;6.63;68.22;99913.62;1756890;81;21069;-69
2022/12/24 05:11:29;;;;;;;47.35;33.35;;;;;;;6.65;68.00;99918.17;1742518;81;21496;-69
2022/12/24 05:13:56;;;;;;;50.10;33.08;;;;;;;6.68;67.78;99918.17;1694477;83;21086;-69
2022/12/24 05:16:23;;;;;;;46.77;32.38;;;;;;;6.66;67.59;99908.35;1751834;81;21019;-70
2022/12/24 05:18:49;;;;;;;47.55;32.38;;;;;;;6.67;67.50;99917.37;1757132;81;21121;-70
2022/12/24 05:21:19;;;;;;;45.52;30.72;;;;;;;6.69;67.33;99909.19;1757112;81;20975;-70
2022/12/24 05:26:35;;;;;;;44.75;31.37;;;;;;;6.69;67.00;99915.30;1757249;81;21026;-73
2022/12/24 05:29:03;;;;;;;44.53;31.00;;;;;;;6.73;66.89;99916.92;1734877;81;21155;-69
2022/12/24 05:31:32;;;;;;;46.28;33.28;;;;;;;6.75;66.77;99916.16;1694634;83;21017;-69
2022/12/24 05:34:00;;;;;;;46.88;32.65;;;;;;;6.76;66.57;99915.11;1745635;81;21069;-69
2022/12/24 05:36:27;;;;;;;42.98;31.05;;;;;;;6.76;66.40;99912.45;1757089;81;21178;-69
2022/12/24 05:38:55;;;;;;;44.75;30.57;;;;;;;6.77;66.19;99918.83;1756753;81;21568;-69
2022/12/24 05:41:22;;;;;;;45.85;31.70;;;;;;;6.76;66.07;99915.91;1757459;80;21006;-71
2022/12/24 05:43:49;;;;;;;47.80;32.85;;;;;;;6.76;65.98;99922.54;1756741;81;21088;-70
2022/12/24 05:46:17;;;;;;;46.33;32.35;;;;;;;6.78;65.97;99918.33;1732151;81;21014;-71
2022/12/24 05:48:44;;;;;;;46.45;31.00;;;;;;;6.79;65.84;99916.73;1726802;83;21188;-71
2022/12/24 05:51:12;;;;;;;46.83;32.85;;;;;;;6.87;65.64;99920.80;1735230;81;21449;-70
2022/12/24 05:53:38;;;;;;;46.48;31.30;;;;;;;6.77;65.59;99920.16;1756880;81;21556;-70
2022/12/24 05:56:12;;;;;;;44.10;30.97;;;;;;;6.75;65.55;99922.27;1756899;81;21030;-71
2022/12/24 05:58:39;;;;;;;43.92;30.45;;;;;;;6.74;65.53;99923.30;1756978;81;21024;-70
2022/12/24 06:01:06;;;;;;;46.73;31.15;;;;;;;6.77;65.45;99929.44;1756982;81;21011;-70
2022/12/24 06:03:34;;;;;;;44.18;31.97;;;;;;;6.78;65.36;99925.77;1754981;80;21049;-70
2022/12/24 06:06:07;;;;;;;47.08;32.13;;;;;;;6.80;65.26;99925.50;1755722;80;21035;-70
2022/12/24 06:08:35;;;;;;;43.83;29.95;;;;;;;6.80;65.17;99931.61;1756173;80;21034;-70
2022/12/24 06:11:05;;;;;;;47.05;32.60;;;;;;;6.80;65.11;99937.44;1755448;81;21037;-71
2022/12/24 06:13:32;;;;;;;44.58;30.32;;;;;;;6.81;65.00;99946.50;1755564;81;21228;-71
2022/12/24 06:16:00;;;;;;;44.05;29.82;;;;;;;6.78;64.86;99950.98;1756767;81;21645;-71
2022/12/24 06:18:29;;;;;;;44.08;30.23;;;;;;;6.78;64.87;99946.20;1755662;81;21522;-72
2022/12/24 06:20:56;;;;;;;44.67;31.68;;;;;;;6.79;64.86;99950.45;1756852;81;20967;-71
2022/12/24 06:23:25;;;;;;;44.88;30.52;;;;;;;6.80;64.83;99950.72;1755848;80;21024;-70
2022/12/24 06:25:54;;;;;;;45.00;30.75;;;;;;;6.81;64.83;99947.83;1731405;81;21813;-70
2022/12/24 06:28:21;;;;;;;46.88;32.17;;;;;;;6.85;64.81;99949.47;1694377;83;20963;-70
2022/12/24 06:30:49;;;;;;;48.95;31.45;;;;;;;6.84;64.69;99942.53;1726624;83;21595;-70
2022/12/24 06:33:16;;;;;;;44.18;30.12;;;;;;;6.84;64.64;99938.55;1727075;83;21087;-74
2022/12/24 06:35:44;;;;;;;40.98;29.85;;;;;;;6.86;64.55;99943.62;1727900;81;20979;-71
2022/12/24 06:38:12;;;;;;;46.00;31.10;;;;;;;6.86;64.51;99933.80;1726911;83;21535;-71
2022/12/24 06:40:40;;;;;;;45.20;30.48;;;;;;;6.89;64.50;99935.17;1745101;79;21578;-70
2022/12/24 06:43:07;;;;;;;43.08;30.20;;;;;;;6.91;64.46;99938.36;1757020;81;21581;-70
2022/12/24 06:45:34;;;;;;;45.92;30.68;;;;;;;6.94;64.38;99935.21;1756308;81;21051;-71
2022/12/24 06:48:00;;;;;;;44.27;31.23;;;;;;;6.92;64.27;99939.45;1756946;81;21062;-71
2022/12/24 06:50:28;;;;;;;46.50;31.37;;;;;;;6.92;64.24;99942.11;1756629;81;21776;-71
2022/12/24 06:52:55;;;;;;;41.58;29.40;;;;;;;6.96;64.17;99947.73;1749206;81;21501;-71
2022/12/24 06:55:22;;;;;;;44.15;30.27;;;;;;;6.97;64.06;99945.34;1747016;80;21024;-71
2022/12/24 06:57:48;;;;;;;42.10;29.63;;;;;;;6.98;64.05;99941.66;1768473;80;21051;-71
2022/12/24 07:00:16;;;;;;;43.92;30.17;;;;;;;7.00;64.07;99943.52;1765932;80;20975;-70
2022/12/24 07:02:44;;;;;;;45.73;30.25;;;;;;;7.03;64.05;99941.70;1756251;80;21410;-70
2022/12/24 07:05:12;;;;;;;43.20;28.98;;;;;;;7.03;64.02;99940.37;1756033;80;21078;-70
2022/12/24 07:07:40;;;;;;;43.73;29.77;;;;;;;7.07;63.97;99939.34;1727152;83;21201;-70
2022/12/24 07:10:14;;;;;;;43.70;29.75;;;;;;;7.10;63.93;99942.30;1737809;81;21081;-72
2022/12/24 07:12:42;;;;;;;42.53;28.95;;;;;;;7.14;63.87;99935.47;1756697;81;21076;-71
2022/12/24 07:15:10;;;;;;;41.68;28.60;;;;;;;7.17;63.73;99935.47;1756735;81;21233;-71
2022/12/24 07:17:37;;;;;;;43.05;29.57;;;;;;;7.20;63.66;99940.28;1723278;81;21145;-71
2022/12/24 07:20:05;;;;;;;43.45;30.43;;;;;;;7.23;63.59;99936.60;1756923;80;21030;-71
2022/12/24 07:22:32;;;;;;;45.38;31.97;;;;;;;7.25;63.51;99942.48;1742610;81;21031;-70
2022/12/24 07:24:59;;;;;;;46.23;31.80;;;;;;;7.31;63.53;99943.88;1746726;78;20951;-70
2022/12/24 07:27:26;;;;;;;46.28;33.13;;;;;;;7.34;63.39;99941.52;1751513;80;21666;-70
2022/12/24 07:29:53;;;;;;;43.95;30.48;;;;;;;7.37;63.31;99940.19;1756532;81;21086;-70
2022/12/24 07:32:20;;;;;;;43.17;30.05;;;;;;;7.37;63.08;99950.81;1756920;80;21051;-70
2022/12/24 07:34:48;;;;;;;43.73;29.55;;;;;;;7.34;63.06;99948.66;1756900;81;20975;-70
2022/12/24 07:37:15;;;;;;;42.43;28.38;;;;;;;7.37;63.04;99956.95;1757049;81;21007;-71
2022/12/24 07:39:41;;;;;;;41.05;28.80;;;;;;;7.35;62.80;99955.06;1756815;81;21098;-70
2022/12/24 07:42:08;;;;;;;43.20;29.55;;;;;;;7.36;62.88;99960.64;1757204;81;21027;-70
2022/12/24 07:44:36;;;;;;;43.20;28.90;;;;;;;7.43;62.92;99954.60;1755389;80;21005;-72
2022/12/24 07:47:03;;;;;;;42.08;28.87;;;;;;;7.50;62.86;99951.74;1769898;79;21082;-70
2022/12/24 07:49:31;;;;;;;41.35;28.38;;;;;;;7.56;62.76;99950.74;1763409;79;21054;-71
2022/12/24 07:51:57;;;;;;;41.70;28.20;;;;;;;7.61;62.59;99948.67;1756715;80;21120;-71
2022/12/24 07:54:25;;;;;;;43.08;29.18;;;;;;;7.63;62.45;99955.32;1755002;80;21465;-71
2022/12/24 07:56:52;;;;;;;39.90;27.45;;;;;;;7.67;62.38;99950.33;1755188;81;21094;-70
2022/12/24 07:59:18;;;;;;;41.77;28.83;;;;;;;7.71;62.32;99948.23;1755435;80;21105;-71
2022/12/24 08:01:46;;;;;;;42.33;30.15;;;;;;;7.75;62.18;99944.54;1746004;80;20959;-71
2022/12/24 08:04:12;;;;;;;44.50;30.12;;;;;;;7.72;62.13;99949.83;1754961;80;21872;-71
2022/12/24 08:06:39;;;;;;;40.58;28.87;;;;;;;7.76;62.20;99940.81;1754064;80;20995;-71
2022/12/24 08:09:06;;;;;;;41.20;29.72;;;;;;;7.80;62.16;99942.44;1755150;80;21133;-71
2022/12/24 08:11:34;;;;;;;40.12;29.40;;;;;;;7.79;62.08;99944.30;1755953;80;21102;-71
2022/12/24 14:21:34;;;;;;;55.33;38.77;;;;;;;6.94;73.15;100040.08;1746311;81;22863;-70
2022/12/24 14:24:15;;;;;;;58.02;38.83;;;;;;;6.99;72.39;100039.63;1663985;84;20922;-70
2022/12/24 14:26:47;;;;;;;52.63;36.50;;;;;;;7.05;71.81;100040.52;1694222;84;21826;-70
2022/12/24 14:29:25;;;;;;;54.00;37.38;;;;;;;7.10;71.32;100050.39;1694199;84;21520;-70
2022/12/24 14:31:57;;;;;;;53.17;37.40;;;;;;;7.12;70.98;100051.75;1673745;84;21634;-70
2022/12/24 14:34:24;;;;;;;60.25;42.95;;;;;;;7.15;70.65;100057.90;1675691;84;21522;-70
2022/12/24 14:36:54;;;;;;;61.58;43.90;;;;;;;7.17;70.41;100070.92;1695725;83;20925;-70
2022/12/24 14:39:36;;;;;;;59.30;41.02;;;;;;;7.17;70.25;100065.11;1695378;84;21185;-70
2022/12/24 14:42:44;;;;;;;53.38;36.63;;;;;;;7.21;69.95;100063.56;1695237;84;21013;-71
2022/12/24 14:45:34;;;;;;;50.28;34.03;;;;;;;7.27;69.71;100059.92;1705939;82;20940;-70
2022/12/24 14:48:15;;;;;;;49.67;36.15;;;;;;;7.29;69.30;100059.12;1695148;84;21041;-70
2022/12/24 14:51:00;;;;;;;51.77;35.50;;;;;;;7.22;68.98;100058.52;1721022;83;20974;-70
2022/12/24 14:54:13;;;;;;;50.25;34.78;;;;;;;7.16;68.83;100059.50;1711996;83;21245;-70
2022/12/24 14:56:39;;;;;;;48.95;34.30;;;;;;;7.17;68.78;100063.78;1721170;83;20970;-70
2022/12/24 14:59:18;;;;;;;49.08;34.08;;;;;;;7.10;68.54;100072.43;1692736;83;21092;-70
2022/12/24 15:01:45;;;;;;;50.50;34.40;;;;;;;7.07;68.58;100088.05;1720462;83;21500;-71
2022/12/24 15:04:15;;;;;;;46.55;32.67;;;;;;;7.08;68.58;100095.79;1720156;83;21107;-71
2022/12/24 15:06:51;;;;;;;48.13;33.95;;;;;;;7.13;68.54;100105.14;1721452;83;21167;-70
2022/12/24 15:09:26;;;;;;;47.75;34.63;;;;;;;7.20;68.35;100104.44;1727746;83;21080;-71
2022/12/24 15:11:55;;;;;;;54.23;36.75;;;;;;;7.20;68.11;100109.74;1721341;83;20977;-71
2022/12/24 15:14:23;;;;;;;50.52;36.38;;;;;;;7.19;68.09;100113.98;1720798;83;21099;-71
2022/12/24 15:17:02;;;;;;;53.90;36.68;;;;;;;7.22;68.06;100117.48;1721209;81;21060;-71
2022/12/24 15:19:38;;;;;;;53.10;36.68;;;;;;;7.24;67.95;100115.40;1692127;84;21298;-71
2022/12/24 15:22:13;;;;;;;51.20;36.42;;;;;;;7.26;67.92;100114.61;1698363;83;21069;-71
2022/12/24 15:24:46;;;;;;;50.88;35.73;;;;;;;7.31;67.83;100109.38;1717642;81;21112;-71
2022/12/24 15:27:18;;;;;;;48.33;34.98;;;;;;;7.35;67.61;100109.16;1720171;81;21057;-71
2022/12/24 15:29:47;;;;;;;52.43;36.70;;;;;;;7.39;67.49;100108.13;1719317;83;21005;-71
2022/12/24 15:32:15;;;;;;;48.05;34.25;;;;;;;7.43;67.36;100110.04;1720410;83;21119;-70
2022/12/24 15:34:49;;;;;;;48.20;33.53;;;;;;;7.47;67.23;100097.89;1719369;83;21482;-70
2022/12/24 15:37:26;;;;;;;45.63;32.80;;;;;;;7.49;67.06;100108.26;1718672;83;21551;-70
2022/12/24 15:40:08;;;;;;;44.98;32.58;;;;;;;7.50;66.95;100115.17;1718922;81;21195;-70
2022/12/24 15:42:41;;;;;;;46.65;31.97;;;;;;;7.51;66.87;100112.28;1704538;83;21033;-70
2022/12/24 15:45:19;;;;;;;43.23;31.93;;;;;;;7.51;66.70;100116.80;1687872;84;21116;-70
2022/12/24 15:47:58;;;;;;;46.80;34.00;;;;;;;7.50;66.68;100111.19;1718451;83;21073;-70
2022/12/24 15:50:34;;;;;;;46.20;32.85;;;;;;;7.44;66.60;100109.54;1705614;83;21153;-70
2022/12/24 15:53:05;;;;;;;49.20;35.03;;;;;;;7.37;66.46;100111.55;1687122;84;20990;-70
2022/12/24 15:55:42;;;;;;;48.83;35.83;;;;;;;7.31;66.46;100117.34;1694684;84;20982;-70
2022/12/24 15:58:22;;;;;;;45.38;32.90;;;;;;;7.31;66.45;100121.86;1694656;84;21228;-70
2022/12/24 16:01:16;;;;;;;45.70;33.33;;;;;;;7.31;66.37;100113.89;1691247;83;21140;-70
2022/12/24 16:03:55;;;;;;;48.48;34.50;;;;;;;7.27;66.29;100110.39;1720613;81;20986;-71
2022/12/24 16:06:22;;;;;;;45.00;32.83;;;;;;;7.26;66.31;100114.08;1718559;83;21026;-71
2022/12/24 16:08:51;;;;;;;51.30;35.40;;;;;;;7.21;66.23;100108.72;1717878;81;21056;-71
2022/12/24 16:11:37;;;;;;;49.18;34.15;;;;;;;7.14;66.18;100120.05;1712517;82;22534;-70
2022/12/24 16:14:12;;;;;;;50.80;34.83;;;;;;;7.10;66.21;100123.42;1358045;82;10000450;-70
2022/12/24 16:16:45;;;;;;;49.25;34.55;;;;;;;7.09;66.29;100127.93;1721366;82;21098;-72
2022/12/24 16:19:22;;;;;;;52.80;36.58;;;;;;;7.09;66.44;100133.23;1708632;82;21037;-71
2022/12/24 16:22:30;;;;;;;52.08;36.00;;;;;;;7.10;66.47;100134.84;1707098;83;21423;-71
2022/12/24 16:24:30;;;;;;;49.65;36.60;;;;;;;7.07;66.51;100136.66;1708083;81;21221;-71
2022/12/24 16:26:56;;;;;;;53.80;38.33;;;;;;;7.09;66.62;100134.56;1716629;83;21337;-71
2022/12/24 16:29:23;;;;;;;67.15;46.05;;;;;;;7.11;66.60;100131.66;1725691;81;21144;-71
2022/12/24 16:31:52;;;;;;;57.80;40.74;;;;;;;7.11;66.58;100131.66;1614967;81;9999781;-71
2022/12/24 16:34:22;;;;;;;55.75;40.58;;;;;;;7.12;66.39;100131.42;1721367;82;21078;-71
2022/12/24 16:36:49;;;;;;;62.35;44.25;;;;;;;7.14;66.66;100129.84;1720445;81;21075;-70
2022/12/24 16:39:24;;;;;;;58.13;41.33;;;;;;;7.16;66.72;100137.85;1709920;81;21866;-71
2022/12/24 16:44:42;;;;;;;56.92;39.53;;;;;;;7.19;66.65;100136.56;1707468;83;21060;-70
2022/12/24 16:47:17;;;;;;;56.85;40.23;;;;;;;7.22;66.57;100135.55;1691007;83;21057;-71
2022/12/24 16:49:43;;;;;;;57.05;39.75;;;;;;;7.19;66.52;100144.00;1695651;81;21099;-72
2022/12/24 16:52:21;;;;;;;56.23;39.10;;;;;;;6.76;67.20;100142.04;1719446;81;21790;-71
2022/12/24 16:54:49;;;;;;;57.95;40.50;;;;;;;6.40;68.23;100137.47;1714904;83;21243;-70
2022/12/24 16:57:16;;;;;;;54.48;39.30;;;;;;;6.31;68.68;100135.72;1699222;81;21190;-71
2022/12/24 16:59:42;;;;;;;55.08;39.58;;;;;;;6.26;68.89;100136.17;1712502;83;22329;-71
2022/12/24 17:02:12;;;;;;;55.17;37.78;;;;;;;6.19;69.02;100140.83;1707635;83;21060;-71
2022/12/24 17:04:39;;;;;;;55.05;38.88;;;;;;;6.32;68.93;100131.25;1679784;84;21117;-71
2022/12/24 17:07:06;;;;;;;61.48;42.03;;;;;;;6.75;67.66;100133.28;1699816;83;21036;-72
2022/12/24 17:09:33;;;;;;;55.75;40.63;;;;;;;6.82;67.37;100137.09;1714294;81;21603;-71
2022/12/24 17:12:00;;;;;;;61.85;41.28;;;;;;;6.84;67.24;100134.98;1710779;81;21036;-70
2022/12/24 17:14:27;;;;;;;64.07;43.90;;;;;;;6.78;67.12;100136.78;1706583;83;21612;-71
2022/12/24 17:16:54;;;;;;;59.88;40.73;;;;;;;6.74;67.06;100142.27;1705597;81;21203;-71
2022/12/24 17:19:20;;;;;;;61.60;42.73;;;;;;;6.71;67.02;100144.10;1710842;83;21570;-71
2022/12/24 17:21:47;;;;;;;53.90;39.85;;;;;;;6.68;67.02;100144.58;1696763;83;21052;-70
2022/12/24 17:24:14;;;;;;;56.75;39.05;;;;;;;6.69;67.15;100154.14;1717892;82;21040;-70
2022/12/24 17:26:42;;;;;;;54.83;37.93;;;;;;;6.69;67.18;100154.67;1703653;83;21599;-70
2022/12/24 17:29:09;;;;;;;53.05;36.80;;;;;;;6.69;67.25;100163.44;1715786;83;21116;-70
2022/12/24 17:31:41;;;;;;;50.23;35.43;;;;;;;6.70;67.27;100159.73;1706712;83;21599;-71
2022/12/24 17:34:08;;;;;;;53.13;36.13;;;;;;;6.71;67.21;100158.70;1715929;81;23091;-70
2022/12/24 17:36:34;;;;;;;50.38;35.85;;;;;;;6.69;67.15;100158.13;1717672;83;21135;-71
2022/12/24 17:39:01;;;;;;;50.80;35.63;;;;;;;6.68;67.17;100155.20;1718703;83;21053;-71
2022/12/24 17:41:28;;;;;;;54.40;37.75;;;;;;;6.70;67.21;100154.95;1715989;83;21110;-70
2022/12/24 17:43:54;;;;;;;54.63;37.28;;;;;;;6.67;67.19;100158.87;1707885;83;22331;-71
2022/12/24 17:46:22;;;;;;;52.90;36.13;;;;;;;6.66;67.23;100162.59;1717289;81;21090;-71
2022/12/24 17:48:50;;;;;;;50.40;35.70;;;;;;;6.63;67.17;100168.90;1713831;82;21060;-70
2022/12/24 17:51:19;;;;;;;52.03;36.28;;;;;;;6.58;67.20;100171.75;1713632;83;21931;-71
2022/12/24 17:53:46;;;;;;;48.55;34.10;;;;;;;6.57;67.28;100171.98;1717180;81;21245;-70
2022/12/24 17:56:14;;;;;;;46.28;34.55;;;;;;;6.57;67.35;100171.98;1712134;82;21110;-71
2022/12/24 17:58:42;;;;;;;48.95;34.53;;;;;;;6.59;67.38;100176.53;1713325;83;21611;-71
2022/12/24 18:01:15;;;;;;;48.63;35.03;;;;;;;6.61;67.31;100181.59;1721937;82;21037;-69
2022/12/24 18:03:43;;;;;;;45.33;33.42;;;;;;;6.58;67.30;100183.70;1709888;83;20918;-71
2022/12/24 18:06:10;;;;;;;45.70;34.08;;;;;;;6.57;67.28;100184.72;1715929;81;21263;-70
2022/12/24 18:08:37;;;;;;;47.33;34.15;;;;;;;6.56;67.23;100187.09;1710063;83;21566;-70
2022/12/24 18:11:13;;;;;;;47.20;33.28;;;;;;;6.55;67.23;100187.35;1716154;81;21588;-70
2022/12/24 18:13:40;;;;;;;47.25;32.95;;;;;;;6.55;67.31;100190.81;1685784;83;22007;-70
2022/12/24 18:16:17;;;;;;;47.75;33.92;;;;;;;6.58;67.35;100189.00;1678968;83;21086;-69
2022/12/24 18:18:44;;;;;;;48.35;35.33;;;;;;;6.58;67.30;100187.67;1691321;84;21301;-69
2022/12/24 18:21:13;;;;;;;48.60;34.67;;;;;;;6.57;67.30;100182.06;1692278;84;21091;-69
2022/12/24 18:23:42;;;;;;;48.60;35.35;;;;;;;6.57;67.32;100178.61;1689657;84;21070;-69
2022/12/24 18:26:08;;;;;;;49.33;35.98;;;;;;;6.57;67.33;100176.76;1691154;84;21049;-69
2022/12/24 18:28:35;;;;;;;53.55;38.13;;;;;;;6.56;67.28;100179.66;1693902;83;21124;-69
2022/12/24 18:31:05;;;;;;;52.15;37.13;;;;;;;6.53;67.24;100188.10;1694177;84;21100;-69
2022/12/24 18:33:34;;;;;;;50.05;37.08;;;;;;;6.52;67.25;100193.94;1691950;84;25965;-69
2022/12/24 18:36:01;;;;;;;55.28;39.60;;;;;;;6.49;67.25;100197.59;1693107;84;21108;-69
2022/12/24 18:38:28;;;;;;;55.90;39.65;;;;;;;6.45;67.32;100197.76;1689615;84;21120;-69
2022/12/24 18:40:54;;;;;;;56.13;39.83;;;;;;;6.41;67.34;100206.72;1692820;84;21063;-69
2022/12/24 18:43:20;;;;;;;54.18;38.92;;;;;;;6.38;67.39;100209.84;1692866;84;21131;-69
2022/12/24 18:45:47;;;;;;;54.53;39.15;;;;;;;6.34;67.43;100213.49;1693140;84;21088;-70
2022/12/24 18:48:14;;;;;;;53.63;38.35;;;;;;;6.32;67.47;100216.92;1690454;83;21095;-69
2022/12/24 18:50:42;;;;;;;50.50;36.55;;;;;;;6.31;67.54;100219.80;1683381;84;21128;-69
2022/12/24 18:53:10;;;;;;;50.17;36.83;;;;;;;6.32;67.61;100224.08;1691598;84;21160;-70
2022/12/24 18:55:36;;;;;;;52.08;37.73;;;;;;;6.32;67.71;100226.73;1687710;84;21300;-70
2022/12/24 18:58:03;;;;;;;49.60;36.33;;;;;;;6.36;67.82;100230.52;1690171;84;21055;-70
2022/12/24 19:00:29;;;;;;;52.10;37.75;;;;;;;6.43;67.95;100235.16;1688319;84;21045;-70
2022/12/24 19:02:56;;;;;;;51.88;37.67;;;;;;;6.48;67.90;100232.61;1692919;84;21072;-69
2022/12/24 19:05:23;;;;;;;48.85;34.98;;;;;;;6.53;67.84;100236.66;1693001;84;21135;-69
2022/12/24 19:07:50;;;;;;;49.90;36.55;;;;;;;6.53;67.73;100232.69;1687655;84;21158;-68
2022/12/24 19:10:17;;;;;;;50.73;36.55;;;;;;;6.54;67.67;100236.14;1691361;83;21012;-68
2022/12/24 19:12:43;;;;;;;52.30;36.88;;;;;;;6.54;67.61;100238.80;1693623;83;21555;-70
2022/12/24 19:15:10;;;;;;;52.23;36.58;;;;;;;6.54;67.60;100242.77;1692652;83;21071;-70
2022/12/24 19:17:37;;;;;;;49.42;36.70;;;;;;;6.53;67.60;100246.48;1692690;84;21689;-69
2022/12/24 19:20:06;;;;;;;55.10;38.67;;;;;;;6.50;67.59;100246.95;1690457;84;21195;-69
2022/12/24 19:22:33;;;;;;;52.65;37.70;;;;;;;6.49;67.63;100250.66;1693644;84;21615;-69
2022/12/24 19:24:59;;;;;;;51.68;36.03;;;;;;;6.49;67.63;100249.33;1666777;84;21327;-69
2022/12/24 19:27:26;;;;;;;52.70;36.98;;;;;;;6.49;67.66;100253.31;1681657;84;21041;-69
2022/12/24 19:29:52;;;;;;;53.83;37.33;;;;;;;6.48;67.71;100256.48;1669629;84;21110;-69
2022/12/24 19:32:19;;;;;;;52.10;37.35;;;;;;;6.47;67.77;100257.51;1688564;84;21876;-69
2022/12/24 19:34:45;;;;;;;53.28;38.55;;;;;;;6.46;67.78;100260.41;1681788;84;21045;-68
2022/12/24 19:37:13;;;;;;;54.05;38.08;;;;;;;6.44;67.81;100261.16;1682450;84;21059;-69
2022/12/24 19:39:41;;;;;;;54.65;37.48;;;;;;;6.43;67.85;100264.86;1691216;84;21096;-69
2022/12/24 19:42:07;;;;;;;51.23;36.38;;;;;;;6.42;67.90;100273.88;1679231;84;21181;-69
2022/12/24 19:44:34;;;;;;;52.27;34.88;;;;;;;6.39;67.94;100261.88;1688127;84;21207;-69
2022/12/24 19:47:00;;;;;;;50.38;34.88;;;;;;;6.39;67.94;100272.49;1680625;84;21079;-69
2022/12/24 19:49:27;;;;;;;50.30;34.92;;;;;;;6.36;67.98;100271.63;1686736;84;21140;-69
2022/12/24 19:51:54;;;;;;;45.90;32.85;;;;;;;6.35;68.04;100276.66;1682124;84;21052;-68
2022/12/24 19:54:20;;;;;;;47.40;34.10;;;;;;;6.33;68.08;100274.75;1685102;84;21641;-69
2022/12/24 19:56:47;;;;;;;49.42;34.92;;;;;;;6.32;68.12;100276.61;1675805;84;21173;-69
2022/12/24 19:59:14;;;;;;;52.03;34.73;;;;;;;6.31;68.21;100278.16;1675217;84;21072;-69
2022/12/24 20:01:41;;;;;;;49.90;35.10;;;;;;;6.28;68.28;100278.09;1684882;84;21085;-69
2022/12/24 20:04:09;;;;;;;48.00;34.15;;;;;;;6.27;68.34;100279.67;1683532;84;21535;-68
2022/12/24 20:06:38;;;;;;;49.20;33.88;;;;;;;6.26;68.42;100281.52;1675201;84;21595;-68
2022/12/24 20:09:06;;;;;;;46.90;34.43;;;;;;;6.25;68.44;100285.72;1676401;84;21866;-68
2022/12/24 20:11:33;;;;;;;48.63;33.90;;;;;;;6.21;68.50;100285.38;1684603;84;21174;-69
2022/12/24 20:14:01;;;;;;;47.55;32.58;;;;;;;6.20;68.62;100290.41;1681522;84;21741;-69
2022/12/24 20:16:28;;;;;;;43.65;32.50;;;;;;;6.19;68.71;100299.42;1690193;84;21551;-68
2022/12/24 20:18:59;;;;;;;47.15;34.67;;;;;;;6.19;68.80;100302.06;1694791;84;21047;-69
2022/12/24 20:21:26;;;;;;;49.77;35.00;;;;;;;6.21;68.93;100302.63;1672901;84;21226;-69
2022/12/24 20:23:53;;;;;;;49.33;35.33;;;;;;;6.25;69.02;100306.94;1692182;84;21064;-69
2022/12/24 20:26:22;;;;;;;50.20;34.92;;;;;;;6.27;69.05;100308.32;1688542;84;21064;-69
2022/12/24 20:28:51;;;;;;;45.65;32.23;;;;;;;6.31;69.08;100311.31;1681006;84;21036;-69
2022/12/24 20:31:26;;;;;;;48.70;35.05;;;;;;;6.34;69.08;100306.86;1674068;84;21127;-69
2022/12/24 20:33:53;;;;;;;48.20;34.10;;;;;;;6.34;69.07;100304.20;1693242;83;21530;-68
2022/12/24 20:36:21;;;;;;;48.25;33.33;;;;;;;6.30;69.08;100309.18;1667221;86;20989;-70
2022/12/24 20:38:48;;;;;;;47.25;33.98;;;;;;;6.26;69.14;100312.02;1684074;84;21021;-70
2022/12/24 20:41:17;;;;;;;46.68;32.33;;;;;;;6.24;69.17;100317.27;1694264;84;20994;-70
2022/12/24 20:43:44;;;;;;;47.25;32.75;;;;;;;6.20;69.21;100315.61;1695828;84;20985;-70
2022/12/24 20:46:11;;;;;;;46.58;32.42;;;;;;;6.21;69.21;100314.55;1695146;84;21841;-69
2022/12/24 20:48:39;;;;;;;45.70;32.95;;;;;;;6.21;69.15;100310.58;1695235;84;21129;-68
2022/12/24 20:51:09;;;;;;;47.23;33.20;;;;;;;6.20;69.15;100318.26;1695298;84;21103;-69
2022/12/24 20:53:35;;;;;;;45.85;32.23;;;;;;;6.18;69.20;100316.88;1695886;84;21096;-69
2022/12/24 20:56:02;;;;;;;45.73;32.50;;;;;;;6.14;69.25;100313.88;1695346;84;21095;-69
2022/12/24 20:58:29;;;;;;;46.50;32.90;;;;;;;6.16;69.37;100317.12;1695663;84;21091;-70
2022/12/24 21:00:56;;;;;;;48.48;33.78;;;;;;;6.18;69.42;100319.00;1693559;83;21087;-69
2022/12/24 21:03:23;;;;;;;49.30;34.40;;;;;;;6.21;69.47;100320.39;1693541;83;21057;-70
2022/12/24 21:05:49;;;;;;;51.60;35.73;;;;;;;6.24;69.52;100316.74;1574037;83;9999865;-70
2022/12/24 21:08:16;;;;;;;48.00;33.60;;;;;;;6.28;69.56;100320.53;1565397;84;10000094;-70
2022/12/24 21:10:45;;;;;;;46.03;33.07;;;;;;;6.30;69.50;100322.97;1665087;86;26973;-70
2022/12/24 21:13:12;;;;;;;45.38;32.58;;;;;;;6.29;69.48;100314.73;1684953;84;21099;-71
2022/12/24 21:15:39;;;;;;;45.23;32.90;;;;;;;6.30;69.48;100313.69;1692873;84;21655;-70
2022/12/24 21:18:10;;;;;;;46.88;32.73;;;;;;;6.31;69.49;100317.41;1673971;84;21261;-69
2022/12/24 21:20:38;;;;;;;47.73;33.90;;;;;;;6.35;69.55;100321.76;1685086;83;21144;-70